Time;durP1;ratioP1;P1;durP2;ratioP2;P2;SDS_P1;SDS_P2;PMS_P1;PMS_P2;Temp;Humidity;BMP_temperature;BMP_pressure;BME280_temperature;BME280_humidity;BME280_pressure;Samples;Min_cycle;Max_cycle;Signal;HPM_P1;HPM_P2
2022/08/09 00:00:27;;;;;;;6.32;6.03;;;;;;;16.90;74.96;102159.00;6080764;23;20083;-73
2022/08/09 00:02:56;;;;;;;5.35;5.15;;;;;;;17.47;75.71;102255.75;6056969;23;20018;-74
2022/08/09 00:05:27;;;;;;;6.65;6.15;;;;;;;17.40;76.04;102265.88;6046431;23;20022;-73
2022/08/09 00:08:16;;;;;;;5.35;5.07;;;;;;;17.13;76.32;102221.34;6055586;23;20089;-75
2022/08/09 00:10:59;;;;;;;5.43;5.13;;;;;;;17.04;76.43;102235.13;6086124;23;20006;-73
2022/08/09 00:13:31;;;;;;;6.38;6.05;;;;;;;16.92;76.76;102206.66;6039723;23;20069;-74
2022/08/09 00:15:58;;;;;;;5.25;4.95;;;;;;;16.67;76.87;102162.00;6088336;23;20078;-74
2022/08/09 00:18:32;;;;;;;6.13;5.82;;;;;;;16.46;77.69;102137.53;6052131;23;20029;-74
2022/08/09 00:21:03;;;;;;;5.70;5.40;;;;;;;17.21;77.59;102249.25;6063587;23;20021;-74
2022/08/09 00:23:30;;;;;;;5.60;5.35;;;;;;;17.16;77.82;102252.19;6040251;23;20022;-73
2022/08/09 00:26:17;;;;;;;5.40;5.20;;;;;;;16.33;77.93;102113.47;6077972;23;20021;-73
2022/08/09 00:29:00;;;;;;;5.15;4.95;;;;;;;17.01;77.97;102221.19;6053775;23;20022;-74
2022/08/09 00:31:27;;;;;;;5.13;4.93;;;;;;;17.18;77.73;102242.34;6069932;23;20101;-74
2022/08/09 00:34:14;;;;;;;5.40;5.10;;;;;;;16.72;77.46;102160.81;6054742;23;20007;-74
2022/08/09 00:36:47;;;;;;;5.78;5.47;;;;;;;17.24;77.35;102239.34;6078482;23;20648;-74
2022/08/09 00:39:23;;;;;;;5.10;4.90;;;;;;;16.98;77.81;102193.03;6033724;23;20041;-74
2022/08/09 00:42:10;;;;;;;5.20;4.90;;;;;;;16.93;78.14;102198.56;6087714;23;20637;-75
2022/08/09 00:44:57;;;;;;;5.20;5.00;;;;;;;16.98;79.14;102216.03;6051307;23;20037;-73
2022/08/09 00:47:23;;;;;;;6.13;5.82;;;;;;;17.02;78.96;102231.72;6092242;23;20501;-73
2022/08/09 00:49:52;;;;;;;4.95;4.75;;;;;;;16.95;79.21;102227.66;6059577;23;20012;-72
2022/08/09 00:52:21;;;;;;;5.88;5.57;;;;;;;17.18;78.62;102250.28;6065126;23;20034;-73
2022/08/09 00:55:00;;;;;;;4.90;4.70;;;;;;;16.93;78.31;102217.13;6050543;23;20041;-73
2022/08/09 00:57:35;;;;;;;6.28;5.97;;;;;;;17.15;78.48;102248.66;6086116;23;20029;-74
2022/08/09 01:00:08;;;;;;;4.88;4.68;;;;;;;16.68;78.74;102180.50;6025281;23;20031;-74
2022/08/09 01:02:56;;;;;;;4.82;4.63;;;;;;;17.03;79.53;102249.31;6071463;23;20025;-74
2022/08/09 01:05:32;;;;;;;5.68;5.47;;;;;;;17.05;79.80;102250.09;6063322;23;20053;-74
2022/08/09 01:08:47;;;;;;;5.85;5.55;;;;;;;17.03;79.66;102253.78;6083979;23;20014;-74
2022/08/09 01:11:27;;;;;;;5.35;5.13;;;;;;;17.05;79.52;102251.91;6050709;23;20038;-74
2022/08/09 01:14:06;;;;;;;5.00;4.80;;;;;;;17.05;79.81;102239.50;6073969;23;20010;-74
2022/08/09 01:16:44;;;;;;;6.65;6.35;;;;;;;16.65;78.90;102187.75;6052827;23;20041;-74
2022/08/09 01:19:39;;;;;;;5.18;4.85;;;;;;;17.03;79.42;102235.22;6076143;23;20029;-74
2022/08/09 01:22:44;;;;;;;6.15;5.85;;;;;;;16.92;80.69;102243.78;6057472;23;20014;-74
2022/08/09 01:25:51;;;;;;;5.60;5.30;;;;;;;15.99;80.38;102074.69;6101076;23;20014;-73
2022/08/09 01:28:21;;;;;;;5.35;5.15;;;;;;;16.98;80.36;102239.91;6049929;23;20600;-73
2022/08/09 01:30:54;;;;;;;4.70;4.50;;;;;;;16.10;80.25;102083.78;6075289;23;20403;-73
2022/08/09 01:33:31;;;;;;;5.90;5.60;;;;;;;16.91;79.78;102232.28;6068632;23;20052;-74
2022/08/09 01:36:11;;;;;;;4.90;4.70;;;;;;;16.79;81.45;102221.47;6087347;23;20017;-74
2022/08/09 01:38:46;;;;;;;5.45;5.25;;;;;;;16.78;81.32;102233.88;6051996;23;20014;-74
2022/08/09 01:41:24;;;;;;;4.80;4.60;;;;;;;16.69;81.87;102232.56;6076830;23;20344;-74
2022/08/09 01:43:59;;;;;;;5.50;5.20;;;;;;;16.55;82.24;102211.22;6055075;23;20017;-74
2022/08/09 01:46:39;;;;;;;6.45;6.15;;;;;;;16.51;82.61;102185.84;6070137;23;20083;-74
2022/08/09 01:49:17;;;;;;;5.30;5.00;;;;;;;16.37;82.40;102172.47;6056769;23;20041;-73
2022/08/09 01:51:51;;;;;;;5.40;5.20;;;;;;;16.15;82.85;102140.00;6082815;23;20085;-76
2022/08/09 01:54:29;;;;;;;5.65;5.40;;;;;;;16.35;83.07;102183.97;6053639;23;20046;-73
2022/08/09 01:57:06;;;;;;;5.30;5.00;;;;;;;16.12;83.35;102147.28;6110594;23;20689;-73
2022/08/09 01:59:36;;;;;;;6.25;5.95;;;;;;;16.25;83.41;102172.16;6059379;23;20029;-74
2022/08/09 02:02:25;;;;;;;5.05;4.85;;;;;;;15.82;83.59;102088.84;6074175;23;20091;-74
2022/08/09 02:05:02;;;;;;;5.40;5.10;;;;;;;16.65;83.85;102244.25;6054664;23;20023;-74
2022/08/09 02:07:43;;;;;;;5.00;4.80;;;;;;;16.34;83.52;102170.84;6075334;23;20180;-74
2022/08/09 02:10:33;;;;;;;5.93;5.63;;;;;;;16.61;83.79;102234.75;6026779;23;20011;-73
2022/08/09 02:13:04;;;;;;;5.45;5.15;;;;;;;16.12;84.55;102164.03;6081229;23;20519;-74
2022/08/09 02:15:36;;;;;;;6.10;5.80;;;;;;;16.52;85.63;102240.56;6056065;23;20023;-74
2022/08/09 02:18:21;;;;;;;5.28;4.97;;;;;;;16.22;85.82;102201.47;6066338;23;20202;-74
2022/08/09 02:20:54;;;;;;;4.90;4.70;;;;;;;16.23;85.52;102197.88;6057904;23;20506;-73
2022/08/09 02:23:47;;;;;;;5.60;5.40;;;;;;;16.48;86.11;102239.88;6082004;23;20059;-73
2022/08/09 02:26:21;;;;;;;5.13;4.93;;;;;;;16.46;85.60;102239.09;6056431;23;20038;-73
2022/08/09 02:28:57;;;;;;;4.90;4.70;;;;;;;16.31;85.83;102211.56;6088578;23;20063;-73
2022/08/09 02:31:33;;;;;;;5.97;5.68;;;;;;;16.38;87.00;102238.63;6067140;23;20067;-74
2022/08/09 02:34:10;;;;;;;4.90;4.70;;;;;;;16.00;87.53;102185.84;6091202;23;20026;-74
2022/08/09 02:36:55;;;;;;;4.90;4.70;;;;;;;16.31;88.74;102240.72;6057635;23;20026;-74
2022/08/09 02:39:26;;;;;;;5.70;5.50;;;;;;;15.65;88.38;102140.78;6087386;23;20030;-74
2022/08/09 02:42:15;;;;;;;4.90;4.70;;;;;;;15.79;89.30;102160.44;6034337;23;20038;-74
2022/08/09 02:44:55;;;;;;;4.90;4.70;;;;;;;16.18;89.13;102226.41;6077063;23;20034;-73
2022/08/09 02:47:23;;;;;;;6.60;6.20;;;;;;;15.81;89.72;102177.97;6057422;23;20086;-75
2022/08/09 02:49:57;;;;;;;5.00;4.80;;;;;;;15.99;90.69;102226.47;6083213;23;20021;-74
2022/08/09 02:52:51;;;;;;;6.28;5.97;;;;;;;15.14;92.12;102103.63;6057620;23;20060;-72
2022/08/09 02:55:23;;;;;;;5.57;5.35;;;;;;;15.76;91.51;102225.00;6083365;23;20021;-74
2022/08/09 02:58:10;;;;;;;4.90;4.70;;;;;;;15.11;93.27;102124.97;6056764;23;20447;-73
2022/08/09 03:01:00;;;;;;;5.10;4.80;;;;;;;15.36;93.87;102163.44;6077562;23;20008;-74
2022/08/09 03:03:34;;;;;;;6.20;5.90;;;;;;;15.66;94.49;102221.06;6065340;23;20085;-73
2022/08/09 03:06:22;;;;;;;5.95;5.65;;;;;;;15.63;94.77;102224.69;6088889;23;20079;-73
2022/08/09 03:08:54;;;;;;;5.00;4.80;;;;;;;15.65;94.06;102222.84;6059248;23;20010;-74
2022/08/09 03:11:22;;;;;;;5.82;5.53;;;;;;;15.49;94.82;102198.91;6092506;23;20010;-74
2022/08/09 03:14:11;;;;;;;4.70;4.50;;;;;;;15.62;94.80;102216.84;6056882;23;20022;-74
2022/08/09 03:16:47;;;;;;;4.82;4.63;;;;;;;15.56;95.81;102229.44;6082820;23;20013;-73
2022/08/09 03:19:21;;;;;;;5.65;5.35;;;;;;;15.47;96.14;102216.66;6058774;23;20022;-74
2022/08/09 03:22:09;;;;;;;5.03;4.78;;;;;;;15.23;96.03;102173.72;6091222;23;20042;-74
2022/08/09 03:24:52;;;;;;;5.10;4.90;;;;;;;15.45;96.12;102212.38;6077185;23;20085;-73
2022/08/09 03:27:43;;;;;;;5.00;4.80;;;;;;;15.40;95.83;102217.91;6114433;23;20041;-74
2022/08/09 03:30:16;;;;;;;4.80;4.60;;;;;;;15.42;96.81;102215.19;6069782;23;20108;-74
2022/08/09 03:33:02;;;;;;;4.90;4.70;;;;;;;15.28;96.73;102198.19;6094641;23;20006;-74
2022/08/09 03:35:44;;;;;;;5.38;5.18;;;;;;;15.22;96.87;102182.59;6079340;23;20017;-74
2022/08/09 03:38:34;;;;;;;6.13;5.82;;;;;;;14.83;96.91;102125.38;6115757;23;20022;-74
2022/08/09 03:41:02;;;;;;;4.80;4.60;;;;;;;15.35;97.30;102226.06;6085678;23;20804;-74
2022/08/09 03:43:29;;;;;;;6.32;6.03;;;;;;;14.15;97.81;102001.75;6084213;23;20381;-72
2022/08/09 03:45:57;;;;;;;4.60;4.40;;;;;;;15.47;97.16;102216.66;6085957;23;20017;-73
2022/08/09 03:48:51;;;;;;;4.70;4.50;;;;;;;14.89;96.79;102118.97;6109526;23;20601;-73
2022/08/09 03:51:20;;;;;;;5.45;5.25;;;;;;;15.50;97.67;102213.88;6070903;23;20079;-73
2022/08/09 03:54:08;;;;;;;4.75;4.55;;;;;;;14.68;97.70;102090.00;6096434;23;20554;-73
2022/08/09 03:56:40;;;;;;;4.60;4.40;;;;;;;14.74;97.93;102126.69;6087740;23;20707;-73
2022/08/09 03:59:09;;;;;;;4.70;4.50;;;;;;;15.28;98.54;102223.78;6106229;23;20095;-73
2022/08/09 04:01:43;;;;;;;4.90;4.70;;;;;;;14.63;97.90;102144.81;6059807;23;20025;-73
2022/08/09 04:04:20;;;;;;;4.78;4.57;;;;;;;14.78;98.52;102187.34;6071721;23;20013;-73
2022/08/09 04:06:50;;;;;;;4.90;4.70;;;;;;;14.56;99.68;102159.25;6077245;23;20021;-73
2022/08/09 04:09:21;;;;;;;5.22;5.00;;;;;;;14.56;100.00;102180.41;6112544;23;20022;-73
2022/08/09 04:12:14;;;;;;;5.00;4.80;;;;;;;14.91;100.00;102230.78;6069692;23;20455;-73
2022/08/09 04:15:13;;;;;;;4.93;4.68;;;;;;;14.93;100.00;102244.78;6109398;23;20025;-73
2022/08/09 04:18:00;;;;;;;4.80;4.60;;;;;;;14.90;100.00;102239.66;6090485;23;20139;-74
2022/08/09 04:20:27;;;;;;;6.43;6.13;;;;;;;14.88;100.00;102246.78;6085970;23;20035;-73
2022/08/09 04:22:54;;;;;;;5.05;4.80;;;;;;;14.78;100.00;102225.19;6065656;23;20481;-73
2022/08/09 04:25:21;;;;;;;6.05;5.75;;;;;;;14.58;100.00;102167.13;6076568;23;20021;-74
2022/08/09 04:27:50;;;;;;;4.72;4.53;;;;;;;14.82;100.00;102158.06;6056117;23;20018;-73
2022/08/09 04:30:21;;;;;;;4.85;4.65;;;;;;;15.63;98.17;102234.44;6065822;23;20006;-71
2022/08/09 04:32:49;;;;;;;4.85;4.65;;;;;;;15.91;96.76;102240.09;6051848;23;20035;-71
2022/08/09 04:35:16;;;;;;;5.10;4.90;;;;;;;16.17;94.38;102237.94;6073150;23;20090;-71
2022/08/09 04:37:47;;;;;;;5.35;5.05;;;;;;;15.79;92.82;102097.78;6039263;23;20081;-72
2022/08/09 04:40:16;;;;;;;5.18;4.95;;;;;;;16.70;89.21;102186.56;6076765;23;20105;-71
2022/08/09 04:43:02;;;;;;;5.10;4.80;;;;;;;16.90;87.21;102142.22;6051689;23;21532;-71
2022/08/09 04:45:30;;;;;;;6.18;5.78;;;;;;;17.24;83.88;102196.00;6074162;23;20038;-71
2022/08/09 04:48:20;;;;;;;5.50;5.20;;;;;;;17.61;83.26;102188.63;6041358;23;20034;-72
2022/08/09 04:50:49;;;;;;;5.43;5.13;;;;;;;17.58;82.10;102212.66;6077785;23;20010;-71
2022/08/09 04:53:18;;;;;;;5.13;4.93;;;;;;;16.43;83.10;102072.28;6043053;23;20021;-71
2022/08/09 04:55:47;;;;;;;5.13;4.93;;;;;;;17.22;82.87;102140.41;6084339;23;20026;-71
2022/08/09 04:58:24;;;;;;;6.50;6.20;;;;;;;17.95;81.60;102198.13;6038661;23;20022;-71
2022/08/09 05:00:51;;;;;;;5.00;4.80;;;;;;;18.38;80.53;102189.38;6058531;23;20238;-71
2022/08/09 05:03:21;;;;;;;6.05;5.75;;;;;;;18.65;78.81;102145.09;6037522;23;20101;-71
2022/08/09 05:06:10;;;;;;;5.30;5.10;;;;;;;19.31;76.83;102167.50;6079732;23;20036;-71
2022/08/09 05:08:47;;;;;;;5.43;5.20;;;;;;;19.35;73.84;102167.31;6051109;23;20014;-71
2022/08/09 05:11:14;;;;;;;5.40;5.20;;;;;;;19.50;72.68;102153.84;6083380;23;20016;-70
2022/08/09 05:13:46;;;;;;;5.30;5.10;;;;;;;19.91;72.31;102182.16;6053037;23;20055;-70
2022/08/09 05:16:16;;;;;;;5.40;5.20;;;;;;;20.33;70.49;102181.97;6077876;23;20015;-70
2022/08/09 05:18:53;;;;;;;5.93;5.63;;;;;;;19.87;70.09;102099.91;6057141;23;20316;-72
2022/08/09 05:21:26;;;;;;;6.60;6.30;;;;;;;20.12;69.24;102121.19;6051535;23;20676;-71
2022/08/09 05:24:01;;;;;;;5.82;5.53;;;;;;;20.79;68.30;102132.50;6064484;23;20019;-71
2022/08/09 05:26:30;;;;;;;7.50;6.78;;;;;;;20.97;66.70;102131.19;6087882;23;20011;-71
2022/08/09 05:29:12;;;;;;;5.55;5.25;;;;;;;21.10;65.58;102104.44;6066405;23;20088;-71
2022/08/09 05:31:43;;;;;;;;;;;;;;;21.77;64.05;102177.78;6076401;23;20084;-71
2022/08/09 05:34:14;;;;;;;7.05;6.75;;;;;;;21.56;63.41;102122.34;6043561;23;19947;-70
2022/08/09 05:36:42;;;;;;;6.00;5.70;;;;;;;20.31;64.84;102082.59;6077046;23;20033;-72
2022/08/09 05:39:12;;;;;;;6.15;5.70;;;;;;;20.04;66.74;102150.19;6046053;23;20026;-72
2022/08/09 05:42:01;;;;;;;5.60;5.30;;;;;;;21.01;64.91;102191.38;6070683;23;20075;-71
2022/08/09 05:44:31;;;;;;;7.18;6.82;;;;;;;20.78;66.01;102152.16;6055043;23;20093;-71
2022/08/09 05:47:00;;;;;;;5.57;5.30;;;;;;;21.56;63.69;102193.63;6083705;23;20381;-70
2022/08/09 05:49:30;;;;;;;7.30;7.00;;;;;;;21.00;63.20;102140.78;6051604;23;20098;-71
2022/08/09 05:52:22;;;;;;;7.78;7.28;;;;;;;20.18;65.69;102135.91;6071445;23;20757;-69
2022/08/09 05:54:55;;;;;;;5.38;5.18;;;;;;;20.69;64.97;102202.56;6071361;23;20711;-70
2022/08/09 05:57:28;;;;;;;;;;;;;;;20.87;65.77;102207.56;6075838;23;20049;-70
2022/08/09 06:00:17;;;;;;;5.80;5.50;;;;;;;20.91;64.85;102190.34;6049448;23;19996;-71
2022/08/09 06:02:44;;;;;;;5.80;5.50;;;;;;;20.06;67.06;102214.03;6076130;23;20053;-70
2022/08/09 06:05:12;;;;;;;5.38;5.18;;;;;;;20.14;65.44;102169.06;6053396;23;20017;-71
2022/08/09 06:07:41;;;;;;;5.88;5.57;;;;;;;20.53;65.98;102215.25;6075441;23;20022;-71
2022/08/09 06:10:09;;;;;;;6.18;5.88;;;;;;;20.43;66.24;102191.03;6054332;23;20109;-71
2022/08/09 06:12:43;;;;;;;6.50;6.15;;;;;;;20.12;65.79;102176.31;6074288;23;20032;-70
2022/08/09 06:15:16;;;;;;;5.22;5.03;;;;;;;19.66;67.99;102198.06;6051967;23;20029;-69
2022/08/09 06:17:42;;;;;;;5.88;5.57;;;;;;;19.37;69.16;102192.88;6082014;23;20018;-71
2022/08/09 06:20:12;;;;;;;5.78;5.47;;;;;;;19.44;70.72;102230.56;6041677;23;20038;-71
2022/08/09 06:22:45;;;;;;;6.18;5.88;;;;;;;18.84;70.50;102154.59;6081949;23;20374;-70
2022/08/09 06:25:11;;;;;;;5.45;5.25;;;;;;;19.17;70.06;102193.31;6058038;23;20026;-70
2022/08/09 06:27:41;;;;;;;5.70;5.40;;;;;;;19.33;70.90;102172.72;6086250;23;20013;-71
2022/08/09 06:30:17;;;;;;;5.70;5.40;;;;;;;19.65;70.03;102199.03;6061457;23;20834;-71
2022/08/09 06:32:44;;;;;;;5.60;5.30;;;;;;;19.52;68.47;102143.94;6089613;23;20028;-71
2022/08/09 06:35:26;;;;;;;6.85;6.55;;;;;;;19.59;68.71;102162.16;6055990;23;20510;-70
2022/08/09 06:38:13;;;;;;;5.90;5.60;;;;;;;19.16;68.41;102139.22;6068969;23;20034;-70
2022/08/09 06:40:42;;;;;;;5.38;5.10;;;;;;;19.81;69.54;102205.06;6052752;23;20041;-70
2022/08/09 06:43:12;;;;;;;5.32;5.13;;;;;;;19.44;68.52;102156.88;6086893;23;20476;-72
2022/08/09 06:45:40;;;;;;;5.93;5.53;;;;;;;19.51;68.71;102165.31;6050703;23;20606;-70
2022/08/09 06:48:27;;;;;;;6.90;6.60;;;;;;;20.01;68.61;102176.22;6079195;23;20035;-70
2022/08/09 06:50:58;;;;;;;5.60;5.30;;;;;;;20.00;66.45;102132.69;6060725;23;20446;-71
2022/08/09 06:53:25;;;;;;;7.05;6.75;;;;;;;20.64;65.84;102220.69;6076321;23;20026;-71
2022/08/09 06:55:52;;;;;;;5.30;5.10;;;;;;;19.98;65.78;102117.78;6053248;23;20759;-71
2022/08/09 06:58:19;;;;;;;6.00;5.72;;;;;;;20.82;63.79;102212.34;6095499;23;20022;-71
2022/08/09 07:01:10;;;;;;;16.45;15.65;;;;;;;20.77;64.90;102220.69;5931914;23;20794;-72
2022/08/09 07:03:37;;;;;;;5.93;5.63;;;;;;;20.85;64.78;102221.00;6092455;23;20484;-71
2022/08/09 07:06:19;;;;;;;5.97;5.72;;;;;;;20.65;64.01;102209.06;6031106;23;20034;-72
2022/08/09 07:08:47;;;;;;;5.40;5.20;;;;;;;20.32;65.06;102165.09;6091432;23;20025;-71
2022/08/09 07:11:15;;;;;;;5.47;5.18;;;;;;;20.20;64.51;102133.97;6054617;23;20022;-71
2022/08/09 07:13:51;;;;;;;5.30;5.10;;;;;;;20.95;63.98;102220.31;6071712;23;20017;-72
2022/08/09 07:16:31;;;;;;;6.47;6.18;;;;;;;20.95;63.03;102167.81;6049886;23;20076;-72
2022/08/09 07:19:14;;;;;;;5.45;5.25;;;;;;;21.51;61.66;102218.88;6083327;23;20685;-71
2022/08/09 07:21:49;;;;;;;5.40;5.10;;;;;;;21.43;60.63;102217.72;6047052;23;20582;-71
2022/08/09 07:24:29;;;;;;;6.78;6.47;;;;;;;21.43;60.12;102228.41;6074292;23;20030;-71
2022/08/09 07:27:06;;;;;;;5.30;5.10;;;;;;;20.76;60.31;102135.41;6053030;23;20464;-71
2022/08/09 07:29:53;;;;;;;5.47;5.28;;;;;;;20.84;60.41;102136.56;6076505;23;20175;-71
2022/08/09 07:32:22;;;;;;;6.80;6.50;;;;;;;21.10;60.68;102150.66;6048101;23;20084;-72
2022/08/09 07:34:59;;;;;;;5.78;5.25;;;;;;;21.58;59.79;102215.75;6046928;23;20095;-72
2022/08/09 07:37:28;;;;;;;6.78;6.43;;;;;;;21.05;59.12;102163.50;6047162;23;20030;-72
2022/08/09 07:39:54;;;;;;;5.70;5.30;;;;;;;21.41;59.04;102159.06;6077447;23;20074;-71
2022/08/09 07:42:22;;;;;;;6.95;6.65;;;;;;;21.66;57.67;102175.94;6038170;23;20471;-72
2022/08/09 07:44:58;;;;;;;5.60;5.40;;;;;;;22.09;57.34;102232.31;6081478;23;20031;-71
2022/08/09 07:47:31;;;;;;;6.70;6.40;;;;;;;21.87;58.43;102179.66;6046470;23;20006;-72
2022/08/09 07:50:19;;;;;;;6.22;5.88;;;;;;;21.80;58.66;102173.06;6080753;23;20038;-72
2022/08/09 07:53:02;;;;;;;5.85;5.55;;;;;;;22.20;58.01;102207.41;6047134;23;20105;-71
2022/08/09 07:55:30;;;;;;;6.70;6.40;;;;;;;21.46;55.76;102134.72;6089849;23;20094;-72
2022/08/09 07:58:17;;;;;;;5.78;5.47;;;;;;;21.14;56.11;102017.81;6056184;23;20026;-71
2022/08/09 08:00:47;;;;;;;6.53;6.13;;;;;;;21.68;56.08;102067.13;6061885;23;20044;-72
2022/08/09 08:03:31;;;;;;;6.93;6.63;;;;;;;22.45;56.00;102185.00;6049484;23;20041;-72
2022/08/09 08:05:58;;;;;;;5.60;5.30;;;;;;;22.56;55.62;102202.84;6060231;23;20008;-72
2022/08/09 08:08:26;;;;;;;6.47;6.13;;;;;;;22.61;55.09;102206.03;6046264;23;20018;-72
2022/08/09 08:11:12;;;;;;;5.60;5.30;;;;;;;22.82;53.81;102207.97;6069537;23;20458;-72
2022/08/09 08:13:59;;;;;;;5.68;5.38;;;;;;;22.75;52.48;102188.00;6043221;23;20023;-72
2022/08/09 08:16:28;;;;;;;6.68;6.38;;;;;;;22.78;53.53;102161.84;6066499;23;20018;-72
2022/08/09 08:18:58;;;;;;;5.30;5.10;;;;;;;22.98;52.28;102210.25;6054629;23;20462;-72
2022/08/09 08:21:29;;;;;;;6.53;6.22;;;;;;;22.83;50.88;102169.50;6059321;23;20006;-72
2022/08/09 08:23:55;;;;;;;5.60;5.30;;;;;;;23.17;51.39;102215.81;6052288;23;20078;-72
2022/08/09 08:26:22;;;;;;;6.75;6.45;;;;;;;22.95;51.86;102146.22;6076810;23;20012;-72
2022/08/09 08:29:08;;;;;;;5.68;5.38;;;;;;;23.05;51.95;102179.34;6017042;23;20391;-73
2022/08/09 08:31:35;;;;;;;6.28;5.97;;;;;;;22.85;51.36;102106.84;6069028;23;20314;-72
2022/08/09 08:34:21;;;;;;;6.80;6.50;;;;;;;22.89;50.49;102110.97;6049996;23;20017;-71
2022/08/09 08:36:51;;;;;;;5.90;5.60;;;;;;;23.33;50.64;102211.91;6075852;23;20590;-70
2022/08/09 08:39:17;;;;;;;5.80;5.55;;;;;;;22.94;51.29;102157.94;6039933;23;20085;-70
2022/08/09 08:41:47;;;;;;;5.90;5.60;;;;;;;23.42;51.63;102205.78;6074481;23;20020;-71
2022/08/09 08:44:19;;;;;;;5.47;5.25;;;;;;;23.09;50.46;102149.53;6050905;23;20026;-71
2022/08/09 08:46:53;;;;;;;5.75;5.45;;;;;;;23.56;50.25;102193.91;6074855;23;20022;-71
2022/08/09 08:49:31;;;;;;;7.40;7.00;;;;;;;23.69;50.68;102216.00;6049811;23;20084;-71
2022/08/09 08:52:18;;;;;;;5.68;5.38;;;;;;;24.14;49.35;102191.66;6083324;23;20438;-71
2022/08/09 08:55:06;;;;;;;5.63;5.32;;;;;;;24.32;48.69;102191.06;6050796;23;20022;-71
2022/08/09 08:57:32;;;;;;;6.90;6.55;;;;;;;23.74;48.68;102078.94;6078083;23;20045;-71
2022/08/09 09:00:01;;;;;;;5.85;5.55;;;;;;;24.36;48.44;102174.56;6052096;23;20026;-71
2022/08/09 09:02:33;;;;;;;6.50;6.20;;;;;;;24.21;46.55;102135.66;6079113;23;20071;-72
2022/08/09 09:05:00;;;;;;;5.90;5.60;;;;;;;24.31;46.84;102166.03;6052259;23;20026;-72
2022/08/09 09:07:36;;;;;;;6.35;5.85;;;;;;;24.36;47.05;102211.28;6055740;23;20269;-72
2022/08/09 09:10:08;;;;;;;;;;;;;;;24.49;47.43;102204.69;6052370;23;20010;-72
2022/08/09 09:12:35;;;;;;;6.00;5.70;;;;;;;24.51;46.92;102236.78;6080778;23;19918;-72
2022/08/09 09:15:04;;;;;;;6.00;5.70;;;;;;;24.12;47.82;102214.25;6062999;23;20326;-72
2022/08/09 09:17:35;;;;;;;7.03;6.63;;;;;;;24.11;47.78;102217.91;6066477;23;20280;-72
2022/08/09 09:20:17;;;;;;;6.05;5.75;;;;;;;24.57;47.76;102213.94;6038725;23;20523;-72
2022/08/09 09:22:55;;;;;;;5.90;5.60;;;;;;;24.86;46.72;102203.31;6067721;23;20054;-73
2022/08/09 09:25:31;;;;;;;7.03;6.60;;;;;;;24.82;47.24;102201.88;6078239;23;20096;-73
2022/08/09 09:28:18;;;;;;;5.72;5.47;;;;;;;24.42;47.00;102157.91;6095492;23;20262;-71
2022/08/09 09:31:12;;;;;;;5.70;5.40;;;;;;;24.61;46.13;102143.72;6066261;23;20015;-71
2022/08/09 09:34:10;;;;;;;6.07;5.78;;;;;;;25.18;45.70;102186.13;6097187;23;20025;-77
2022/08/09 09:36:40;;;;;;;6.00;5.70;;;;;;;24.92;44.86;102191.16;6067774;23;20027;-78
2022/08/09 09:39:21;;;;;;;5.90;5.60;;;;;;;24.75;46.65;102206.09;6108887;23;20045;-73
2022/08/09 09:41:49;;;;;;;5.90;5.60;;;;;;;24.95;45.76;102189.03;6076078;23;20014;-74
2022/08/09 09:44:34;;;;;;;5.70;5.40;;;;;;;25.00;45.38;102141.13;6083548;23;20037;-74
2022/08/09 09:47:08;;;;;;;6.03;5.72;;;;;;;25.38;45.12;102211.19;6076081;23;20022;-73
2022/08/09 09:49:37;;;;;;;6.97;6.57;;;;;;;25.01;43.96;102185.78;6087654;23;20038;-74
2022/08/09 09:52:26;;;;;;;7.40;7.05;;;;;;;25.69;43.53;102209.22;6064016;23;20009;-74
2022/08/09 09:55:10;;;;;;;6.05;5.50;;;;;;;25.46;43.87;102212.19;6122311;23;20129;-75
2022/08/09 09:58:03;;;;;;;5.85;5.55;;;;;;;25.08;43.98;102235.31;6069109;23;20018;-75
2022/08/09 10:00:47;;;;;;;5.82;5.53;;;;;;;25.08;43.74;102204.91;6090440;23;20064;-74
2022/08/09 10:03:40;;;;;;;6.20;5.90;;;;;;;25.33;43.72;102229.59;6069866;23;20046;-72
2022/08/09 10:06:10;;;;;;;5.80;5.50;;;;;;;25.35;44.12;102224.91;6085121;23;20025;-73
2022/08/09 10:08:42;;;;;;;6.38;5.97;;;;;;;25.24;43.46;102221.38;6075450;23;20408;-72
2022/08/09 10:11:27;;;;;;;6.60;6.30;;;;;;;25.07;43.15;102233.59;6108914;23;20077;-73
2022/08/09 10:14:24;;;;;;;5.80;5.47;;;;;;;25.30;43.96;102228.03;6076001;23;20037;-73
2022/08/09 10:17:09;;;;;;;5.97;5.68;;;;;;;25.51;43.77;102208.25;6104229;23;20021;-74
2022/08/09 10:19:55;;;;;;;5.63;5.30;;;;;;;25.54;41.62;102154.16;6065430;23;20014;-74
2022/08/09 10:22:29;;;;;;;6.80;6.50;;;;;;;25.72;42.09;102205.38;6102431;18;20070;-73
2022/08/09 10:25:00;;;;;;;6.07;5.78;;;;;;;25.48;43.32;102182.50;6049429;23;20161;-74
2022/08/09 10:27:38;;;;;;;5.90;5.60;;;;;;;25.40;41.94;102145.56;6078015;23;20640;-72
2022/08/09 10:30:26;;;;;;;6.78;6.47;;;;;;;25.11;42.11;102124.03;6054607;23;20023;-74
2022/08/09 10:33:14;;;;;;;5.55;5.28;;;;;;;25.48;42.19;102186.03;6104477;18;20022;-72
2022/08/09 10:36:03;;;;;;;5.70;5.40;;;;;;;25.86;42.37;102186.97;6099802;23;20418;-73
2022/08/09 10:38:30;;;;;;;6.65;6.35;;;;;;;25.72;42.19;102217.00;6084035;23;20472;-74
2022/08/09 10:41:17;;;;;;;5.93;5.38;;;;;;;25.62;42.10;102200.88;6070115;23;20377;-73
2022/08/09 10:43:48;;;;;;;5.65;5.38;;;;;;;25.75;42.14;102160.22;6056499;23;20026;-74
2022/08/09 10:46:44;;;;;;;6.85;6.55;;;;;;;26.17;41.39;102213.69;6050406;23;20018;-72
2022/08/09 10:49:26;;;;;;;6.45;6.15;;;;;;;25.39;41.32;102151.91;6050632;23;20368;-73
2022/08/09 10:52:57;;;;;;;5.90;5.60;;;;;;;25.61;42.31;102164.22;6045223;23;20022;-73
2022/08/09 10:55:30;;;;;;;7.10;6.70;;;;;;;25.71;41.37;102153.44;6074030;23;20034;-75
2022/08/09 10:58:36;;;;;;;5.90;5.60;;;;;;;26.41;41.59;102209.66;6061144;23;20034;-77
2022/08/09 11:01:04;;;;;;;5.63;5.32;;;;;;;26.50;40.83;102205.22;6074832;23;20383;-74
2022/08/09 11:04:08;;;;;;;5.60;5.30;;;;;;;26.75;40.23;102212.66;6062398;23;20018;-75
2022/08/09 11:06:58;;;;;;;5.65;5.38;;;;;;;26.77;40.69;102210.66;6057662;23;20523;-73
2022/08/09 11:09:41;;;;;;;6.65;6.35;;;;;;;26.79;40.28;102215.91;6056092;23;20405;-74
2022/08/09 11:12:17;;;;;;;5.63;5.35;;;;;;;26.73;39.98;102224.59;6078981;23;20085;-73
2022/08/09 11:14:53;;;;;;;6.00;5.60;;;;;;;26.98;40.33;102221.19;6061023;23;20480;-74
2022/08/09 11:17:23;;;;;;;6.45;6.15;;;;;;;26.80;38.57;102226.53;6045154;23;20170;-74
2022/08/09 11:20:08;;;;;;;5.80;5.50;;;;;;;26.13;38.86;102118.13;6064390;23;20014;-74
2022/08/09 11:22:49;;;;;;;6.22;5.93;;;;;;;26.59;39.99;102226.75;6051937;23;20020;-73
2022/08/09 11:25:26;;;;;;;6.50;6.10;;;;;;;26.60;39.45;102223.09;6060040;23;20014;-74
2022/08/09 11:28:26;;;;;;;5.40;5.20;;;;;;;26.65;39.16;102225.31;6055476;23;20042;-73
2022/08/09 11:31:02;;;;;;;5.75;5.45;;;;;;;26.58;39.44;102173.91;6057465;23;20011;-74
2022/08/09 11:33:44;;;;;;;6.93;6.57;;;;;;;26.80;39.48;102218.47;6048654;23;20429;-73
2022/08/09 11:36:14;;;;;;;6.10;5.70;;;;;;;26.62;40.08;102204.06;6045505;23;20018;-74
2022/08/09 11:39:03;;;;;;;5.80;5.50;;;;;;;26.14;40.33;102084.84;6050731;23;20053;-74
2022/08/09 11:41:30;;;;;;;7.05;6.65;;;;;;;26.29;39.14;102122.88;6055227;23;20068;-73
2022/08/09 11:44:06;;;;;;;6.10;5.80;;;;;;;26.33;39.48;102118.03;6056908;23;20022;-76
2022/08/09 11:46:55;;;;;;;7.13;6.72;;;;;;;26.89;39.39;102205.91;6058459;23;20014;-75
2022/08/09 11:49:57;;;;;;;6.85;6.45;;;;;;;27.06;39.11;102199.72;6059103;23;20022;-74
2022/08/09 11:52:59;;;;;;;5.55;5.32;;;;;;;27.15;38.21;102205.19;6052330;23;20518;-73
2022/08/09 11:55:46;;;;;;;5.90;5.60;;;;;;;27.13;38.12;102174.84;6053116;23;20384;-73
2022/08/09 11:58:29;;;;;;;7.45;7.05;;;;;;;27.48;37.99;102189.34;6024950;23;20113;-78
2022/08/09 12:01:05;;;;;;;6.10;5.80;;;;;;;26.71;37.51;102121.53;6063013;23;20012;-74
2022/08/09 12:03:59;;;;;;;5.65;5.35;;;;;;;26.98;38.51;102206.84;6052816;23;20034;-74
2022/08/09 12:06:26;;;;;;;;;;;;;;;27.27;38.09;102203.16;6047124;23;20022;-74
2022/08/09 12:08:59;;;;;;;6.43;6.13;;;;;;;27.27;38.25;102195.91;6059580;23;19906;-74
2022/08/09 12:11:27;;;;;;;6.90;6.50;;;;;;;27.39;37.43;102201.94;6048881;23;20081;-75
2022/08/09 12:14:02;;;;;;;5.90;5.55;;;;;;;27.02;37.27;102122.00;6062688;23;20018;-75